createdAt,value
2019-04-28T00:00:12.453Z,28.23
2019-04-28T00:01:17.633Z,28.22
2019-04-28T00:02:22.362Z,28.20
2019-04-28T00:03:24.005Z,28.18
2019-04-28T00:04:25.390Z,28.20
2019-04-28T00:05:26.899Z,28.28
2019-04-28T00:06:28.276Z,28.36
2019-04-28T00:07:29.773Z,28.34
2019-04-28T00:08:31.857Z,28.38
2019-04-28T00:09:33.457Z,28.37
2019-04-28T00:10:34.875Z,28.35
2019-04-28T00:11:36.260Z,28.35
2019-04-28T00:12:37.750Z,28.38
2019-04-28T00:13:39.135Z,28.36
2019-04-28T00:14:42.222Z,28.35
2019-04-28T00:15:44.736Z,28.39
2019-04-28T00:16:46.107Z,28.28
2019-04-28T00:17:47.509Z,28.38
2019-04-28T00:18:48.886Z,28.43
2019-04-28T00:19:51.519Z,28.33
2019-04-28T00:20:57.591Z,28.40
2019-04-28T00:22:17.831Z,28.40
2019-04-28T00:23:37.759Z,28.32
2019-04-28T00:24:43.821Z,28.28
2019-04-28T00:26:02.333Z,28.33
2019-04-28T00:27:04.430Z,28.36
2019-04-28T00:28:05.806Z,28.44
2019-04-28T00:29:07.300Z,28.44
2019-04-28T00:30:11.731Z,28.56
2019-04-28T00:31:13.197Z,28.58
2019-04-28T00:32:14.678Z,28.48
2019-04-28T00:33:16.076Z,28.48
2019-04-28T00:34:17.456Z,28.51
2019-04-28T00:35:18.946Z,28.48
2019-04-28T00:36:21.595Z,28.52
2019-04-28T00:37:24.989Z,28.65
2019-04-28T00:38:26.374Z,28.62
2019-04-28T00:39:27.860Z,28.58
2019-04-28T00:40:29.493Z,28.59
2019-04-28T00:41:31.046Z,28.49
2019-04-28T00:42:32.546Z,28.51
2019-04-28T00:43:33.944Z,28.50
2019-04-28T00:44:35.424Z,28.53
2019-04-28T00:45:36.928Z,28.49
2019-04-28T00:46:40.968Z,28.56
2019-04-28T00:47:42.827Z,28.54
2019-04-28T00:48:44.470Z,28.55
2019-04-28T00:49:45.881Z,28.60
2019-04-28T00:50:47.416Z,28.57
2019-04-28T00:51:48.842Z,28.54
2019-04-28T00:52:51.823Z,28.55
2019-04-28T00:53:53.422Z,28.63
2019-04-28T00:54:54.920Z,28.63
2019-04-28T00:55:56.317Z,28.66
2019-04-28T00:56:57.845Z,28.53
2019-04-28T00:58:00.896Z,28.50
2019-04-28T00:59:02.475Z,28.54
2019-04-28T01:00:05.687Z,28.45
2019-04-28T01:01:27.169Z,28.60
2019-04-28T01:02:31.192Z,28.58
2019-04-28T01:03:32.792Z,28.47
2019-04-28T01:04:34.288Z,28.57
2019-04-28T01:05:35.759Z,28.60
2019-04-28T01:06:37.232Z,28.51
2019-04-28T01:07:38.618Z,28.59
2019-04-28T01:08:41.882Z,28.65
2019-04-28T01:09:43.366Z,28.64
2019-04-28T01:10:44.749Z,28.54
2019-04-28T01:11:46.240Z,28.60
2019-04-28T01:12:47.639Z,28.63
2019-04-28T01:13:49.019Z,28.61
2019-04-28T01:14:54.514Z,28.56
2019-04-28T01:16:01.207Z,28.60
2019-04-28T01:17:04.512Z,28.52
2019-04-28T01:18:14.894Z,28.48
2019-04-28T01:19:20.106Z,28.55
2019-04-28T01:20:23.183Z,28.55
2019-04-28T01:21:26.473Z,28.67
2019-04-28T01:22:29.959Z,28.64
2019-04-28T01:23:31.278Z,28.66
2019-04-28T01:24:32.761Z,28.67
2019-04-28T01:25:34.259Z,28.70
2019-04-28T01:26:35.630Z,28.69
2019-04-28T01:27:40.300Z,28.81
2019-04-28T01:28:42.733Z,28.79
2019-04-28T01:29:44.125Z,28.72
2019-04-28T01:30:50.191Z,28.73
2019-04-28T01:32:02.332Z,28.74
2019-04-28T01:33:09.614Z,28.70
2019-04-28T01:34:21.886Z,28.73
2019-04-28T01:35:24.258Z,28.74
2019-04-28T01:36:25.648Z,28.77
2019-04-28T01:37:27.107Z,28.75
2019-04-28T01:38:30.283Z,28.82
2019-04-28T01:39:31.795Z,28.83
2019-04-28T01:40:33.204Z,28.89
2019-04-28T01:41:34.618Z,28.88
2019-04-28T01:42:36.160Z,28.89
2019-04-28T01:43:37.572Z,28.90
2019-04-28T01:44:39.556Z,28.90
2019-04-28T01:45:41.647Z,28.87
2019-04-28T01:46:43.082Z,28.87
2019-04-28T01:47:44.458Z,28.92
2019-04-28T01:48:45.856Z,28.82
2019-04-28T01:49:47.242Z,28.89
2019-04-28T01:50:49.975Z,28.79
2019-04-28T01:52:00.513Z,28.82
2019-04-28T01:53:01.755Z,28.79
2019-04-28T01:54:03.364Z,28.81
2019-04-28T01:55:06.088Z,28.76
2019-04-28T01:56:07.574Z,28.77
2019-04-28T01:57:10.154Z,28.84
2019-04-28T01:58:11.656Z,28.79
2019-04-28T01:59:13.058Z,28.79
2019-04-28T02:00:22.857Z,28.89
2019-04-28T02:01:20.320Z,28.91
2019-04-28T02:02:21.896Z,28.81
2019-04-28T02:03:23.315Z,28.88
2019-04-28T02:04:24.720Z,28.83
2019-04-28T02:05:26.151Z,28.85
2019-04-28T02:06:27.644Z,28.88
2019-04-28T02:07:30.600Z,28.85
2019-04-28T02:08:32.368Z,28.82
2019-04-28T02:09:33.765Z,28.84
2019-04-28T02:10:35.176Z,28.80
2019-04-28T02:11:36.583Z,28.87
2019-04-28T02:12:37.987Z,28.85
2019-04-28T02:13:39.921Z,28.93
2019-04-28T02:14:41.516Z,28.83
2019-04-28T02:15:42.913Z,28.90
2019-04-28T02:16:44.292Z,28.86
2019-04-28T02:17:45.761Z,28.89
2019-04-28T02:18:47.592Z,28.89
2019-04-28T02:19:48.991Z,28.85
2019-04-28T02:20:52.312Z,28.91
2019-04-28T02:21:55.626Z,28.92
2019-04-28T02:22:59.911Z,28.87
2019-04-28T02:24:19.994Z,28.95
2019-04-28T02:25:21.515Z,28.89
2019-04-28T02:26:22.980Z,28.86
2019-04-28T02:27:24.654Z,28.89
2019-04-28T02:28:26.149Z,28.84
2019-04-28T02:29:30.034Z,28.87
2019-04-28T02:30:42.322Z,28.96
2019-04-28T02:31:35.136Z,28.88
2019-04-28T02:32:36.542Z,28.91
2019-04-28T02:33:40.606Z,28.95
2019-04-28T02:34:42.099Z,28.97
2019-04-28T02:35:43.610Z,28.89
2019-04-28T02:36:45.035Z,28.98
2019-04-28T02:37:46.498Z,29.01
2019-04-28T02:38:47.983Z,29.01
2019-04-28T02:39:50.513Z,28.99
2019-04-28T02:40:52.221Z,29.05
2019-04-28T02:41:53.643Z,29.00
2019-04-28T02:42:55.107Z,28.95
2019-04-28T02:43:56.615Z,28.90
2019-04-28T02:45:00.466Z,28.90
2019-04-28T02:46:02.199Z,28.97
2019-04-28T02:47:03.721Z,28.95
2019-04-28T02:48:07.029Z,28.97
2019-04-28T02:49:10.406Z,28.95
2019-04-28T02:50:22.781Z,28.79
2019-04-28T02:51:40.990Z,28.85
2019-04-28T02:53:02.543Z,28.78
2019-04-28T02:54:04.917Z,28.77
2019-04-28T02:55:06.718Z,28.83
2019-04-28T02:56:11.069Z,28.85
2019-04-28T02:57:11.487Z,28.96
2019-04-28T02:58:13.566Z,29.06
2019-04-28T02:59:17.646Z,29.04
2019-04-28T03:00:21.639Z,28.97
2019-04-28T03:01:26.439Z,28.98
2019-04-28T03:02:25.882Z,29.04
2019-04-28T03:03:27.382Z,29.07
2019-04-28T03:04:30.770Z,29.01
2019-04-28T03:05:33.520Z,29.03
2019-04-28T03:06:35.250Z,29.05
2019-04-28T03:07:36.641Z,29.07
2019-04-28T03:08:40.270Z,29.06
2019-04-28T03:09:41.362Z,29.03
2019-04-28T03:10:43.758Z,29.00
2019-04-28T03:11:45.130Z,29.00
2019-04-28T03:12:46.558Z,29.02
2019-04-28T03:13:50.858Z,29.00
2019-04-28T03:14:51.587Z,29.01
2019-04-28T03:15:52.994Z,29.08
2019-04-28T03:16:54.402Z,29.04
2019-04-28T03:17:55.812Z,29.08
2019-04-28T03:18:57.335Z,29.03
2019-04-28T03:20:01.036Z,29.03
2019-04-28T03:21:04.407Z,29.10
2019-04-28T03:22:06.090Z,29.00
2019-04-28T03:23:11.491Z,29.05
2019-04-28T03:24:13.355Z,29.00
2019-04-28T03:25:16.690Z,29.09
2019-04-28T03:26:30.865Z,29.09
2019-04-28T03:27:40.476Z,29.12
2019-04-28T03:28:51.346Z,29.11
2019-04-28T03:30:13.301Z,29.01
2019-04-28T03:32:04.145Z,28.99
2019-04-28T03:32:45.789Z,28.94
2019-04-28T03:33:47.303Z,28.92
2019-04-28T03:34:44.570Z,28.98
2019-04-28T03:35:46.149Z,29.11
2019-04-28T03:36:47.548Z,29.13
2019-04-28T03:37:51.295Z,29.20
2019-04-28T03:38:53.085Z,29.21
2019-04-28T03:39:54.807Z,29.17
2019-04-28T03:40:56.309Z,29.12
2019-04-28T03:42:00.070Z,29.12
2019-04-28T03:43:03.175Z,29.15
2019-04-28T03:44:04.483Z,29.05
2019-04-28T03:45:07.882Z,29.08
2019-04-28T03:46:16.780Z,29.09
2019-04-28T03:47:21.061Z,29.08
2019-04-28T03:48:22.106Z,29.11
2019-04-28T03:49:33.477Z,29.08
2019-04-28T03:50:34.890Z,29.05
2019-04-28T03:51:36.403Z,29.02
2019-04-28T03:52:37.781Z,29.01
2019-04-28T03:53:41.055Z,29.00
2019-04-28T03:54:42.463Z,29.05
2019-04-28T03:55:43.861Z,29.02
2019-04-28T03:56:45.277Z,29.04
2019-04-28T03:57:46.786Z,29.04
2019-04-28T03:58:50.418Z,29.11
2019-04-28T03:59:51.657Z,29.05
2019-04-28T04:00:53.145Z,29.04
2019-04-28T04:01:59.372Z,29.03
2019-04-28T04:03:00.714Z,29.02
2019-04-28T04:04:03.555Z,29.05
2019-04-28T04:05:05.777Z,29.07
2019-04-28T04:06:07.270Z,29.07
2019-04-28T04:07:11.113Z,29.03
2019-04-28T04:08:12.144Z,29.07
2019-04-28T04:09:13.621Z,29.09
2019-04-28T04:10:30.710Z,29.03
2019-04-28T04:11:34.082Z,29.11
2019-04-28T04:12:43.482Z,29.00
2019-04-28T04:14:03.465Z,29.05
2019-04-28T04:15:25.401Z,28.96
2019-04-28T04:16:34.861Z,28.97
2019-04-28T04:17:41.098Z,28.99
2019-04-28T04:18:53.206Z,29.02
2019-04-28T04:19:52.710Z,29.07
2019-04-28T04:20:54.106Z,29.01
2019-04-28T04:21:55.736Z,29.06
2019-04-28T04:22:57.149Z,29.11
2019-04-28T04:24:00.863Z,29.09
2019-04-28T04:25:01.964Z,29.11
2019-04-28T04:26:03.548Z,29.05
2019-04-28T04:27:04.948Z,29.07
2019-04-28T04:28:06.333Z,29.07
2019-04-28T04:29:10.044Z,29.08
2019-04-28T04:30:11.045Z,29.08
2019-04-28T04:31:12.550Z,29.06
2019-04-28T04:32:22.955Z,29.09
2019-04-28T04:33:17.257Z,29.05
2019-04-28T04:34:20.214Z,29.03
2019-04-28T04:35:21.866Z,29.05
2019-04-28T04:36:23.249Z,29.00
2019-04-28T04:37:24.638Z,28.94
2019-04-28T04:38:27.131Z,29.01
2019-04-28T04:39:30.371Z,29.02
2019-04-28T04:40:32.115Z,29.04
2019-04-28T04:41:33.699Z,29.00
2019-04-28T04:42:35.083Z,28.95
2019-04-28T04:43:36.471Z,28.92
2019-04-28T04:44:41.290Z,28.86
2019-04-28T04:45:41.137Z,28.87
2019-04-28T04:46:42.533Z,28.86
2019-04-28T04:47:43.932Z,28.87
2019-04-28T04:48:45.513Z,28.87
2019-04-28T04:49:46.932Z,28.91
2019-04-28T04:50:50.875Z,28.85
2019-04-28T04:51:51.662Z,28.88
2019-04-28T04:52:53.526Z,28.86
2019-04-28T04:53:54.932Z,28.94
2019-04-28T04:54:56.332Z,28.92
2019-04-28T04:55:57.709Z,28.87
2019-04-28T04:57:00.042Z,28.86
2019-04-28T04:58:01.492Z,28.87
2019-04-28T04:59:03.010Z,28.88
2019-04-28T05:00:09.892Z,28.91
2019-04-28T05:01:12.882Z,28.86
2019-04-28T05:02:29.291Z,28.82
2019-04-28T05:03:24.164Z,28.82
2019-04-28T05:04:30.488Z,28.82
2019-04-28T05:05:33.788Z,28.92
2019-04-28T05:06:41.833Z,28.90
2019-04-28T05:07:43.240Z,28.92
2019-04-28T05:08:44.619Z,28.88
2019-04-28T05:09:46.093Z,28.86
2019-04-28T05:10:47.504Z,28.91
2019-04-28T05:11:49.912Z,28.96
2019-04-28T05:12:51.790Z,28.91
2019-04-28T05:13:53.345Z,28.89
2019-04-28T05:14:54.759Z,28.86
2019-04-28T05:15:56.290Z,28.88
2019-04-28T05:16:57.666Z,28.95
2019-04-28T05:18:00.388Z,28.96
2019-04-28T05:19:01.832Z,28.97
2019-04-28T05:20:04.930Z,28.96
2019-04-28T05:21:06.317Z,28.94
2019-04-28T05:22:10.068Z,28.90
2019-04-28T05:23:13.246Z,28.82
2019-04-28T05:24:17.486Z,28.83
2019-04-28T05:25:24.647Z,28.85
2019-04-28T05:26:27.140Z,28.92
2019-04-28T05:27:30.013Z,28.95
2019-04-28T05:28:36.447Z,28.93
2019-04-28T05:29:35.096Z,28.89
2019-04-28T05:30:39.821Z,28.89
2019-04-28T05:31:40.189Z,28.94
2019-04-28T05:32:45.508Z,28.99
2019-04-28T05:33:45.129Z,28.99
2019-04-28T05:34:48.019Z,28.96
2019-04-28T05:35:50.151Z,29.02
2019-04-28T05:36:52.590Z,29.03
2019-04-28T05:37:53.964Z,29.02
2019-04-28T05:38:55.451Z,28.97
2019-04-28T05:39:56.948Z,28.89
2019-04-28T05:41:00.312Z,28.97
2019-04-28T05:42:01.716Z,28.97
2019-04-28T05:43:03.102Z,28.98
2019-04-28T05:44:04.691Z,28.94
2019-04-28T05:45:06.671Z,29.01
2019-04-28T05:46:08.059Z,28.97
2019-04-28T05:47:09.949Z,28.97
2019-04-28T05:48:11.481Z,28.95
2019-04-28T05:49:14.779Z,28.94
2019-04-28T05:50:19.655Z,28.95
2019-04-28T05:51:25.872Z,28.91
2019-04-28T05:52:32.215Z,28.90
2019-04-28T05:53:35.536Z,28.96
2019-04-28T05:54:44.878Z,28.98
2019-04-28T05:55:50.158Z,29.04
2019-04-28T05:57:05.445Z,29.05
2019-04-28T05:58:09.794Z,29.05
2019-04-28T05:59:15.993Z,28.99
2019-04-28T06:00:31.362Z,29.07
2019-04-28T06:01:34.638Z,29.02
2019-04-28T06:02:53.420Z,28.90
2019-04-28T06:03:44.457Z,28.93
2019-04-28T06:04:45.865Z,28.92
2019-04-28T06:05:47.266Z,28.97
2019-04-28T06:06:50.570Z,28.98
2019-04-28T06:07:56.701Z,28.99
2019-04-28T06:09:00.036Z,28.95
2019-04-28T06:10:01.531Z,28.86
2019-04-28T06:11:04.772Z,28.88
2019-04-28T06:12:10.179Z,28.86
2019-04-28T06:13:11.341Z,28.83
2019-04-28T06:14:12.767Z,28.75
2019-04-28T06:15:14.148Z,28.70
2019-04-28T06:16:15.542Z,28.63
2019-04-28T06:17:16.918Z,28.59
2019-04-28T06:18:18.307Z,28.52
2019-04-28T06:19:20.241Z,28.45
2019-04-28T06:20:21.784Z,28.43
2019-04-28T06:21:23.172Z,28.39
2019-04-28T06:22:24.559Z,28.26
2019-04-28T06:23:25.946Z,28.19
2019-04-28T06:24:27.373Z,28.09
2019-04-28T06:25:28.748Z,28.03
2019-04-28T06:26:30.144Z,28.03
2019-04-28T06:27:32.793Z,27.90
2019-04-28T06:28:34.326Z,27.79
2019-04-28T06:29:35.741Z,27.75
2019-04-28T06:30:37.135Z,27.71
2019-04-28T06:31:38.524Z,27.70
2019-04-28T06:32:39.907Z,27.61
2019-04-28T06:33:41.293Z,27.52
2019-04-28T06:34:42.693Z,27.46
2019-04-28T06:35:44.072Z,27.46
2019-04-28T06:36:45.475Z,27.37
2019-04-28T06:37:46.854Z,27.29
2019-04-28T06:38:49.471Z,27.24
2019-04-28T06:39:50.884Z,27.25
2019-04-28T06:40:52.395Z,27.20
2019-04-28T06:41:53.809Z,27.08
2019-04-28T06:42:55.218Z,27.06
2019-04-28T06:43:56.628Z,27.01
2019-04-28T06:44:58.053Z,26.97
2019-04-28T06:45:59.433Z,26.85
2019-04-28T06:47:00.839Z,26.75
2019-04-28T06:48:02.415Z,26.80
2019-04-28T06:49:04.015Z,26.72
2019-04-28T06:50:05.804Z,26.73
2019-04-28T06:51:07.217Z,26.59
2019-04-28T06:52:08.633Z,26.58
2019-04-28T06:53:10.146Z,26.50
2019-04-28T06:54:11.573Z,26.53
2019-04-28T06:55:13.173Z,26.50
2019-04-28T06:56:14.660Z,26.50
2019-04-28T06:57:18.044Z,26.49
2019-04-28T06:58:19.423Z,26.46
2019-04-28T06:59:20.821Z,26.43
2019-04-28T07:00:22.338Z,26.41
2019-04-28T07:01:23.745Z,26.37
2019-04-28T07:03:27.508Z,26.29
2019-04-28T07:04:29.027Z,26.26
2019-04-28T07:05:30.469Z,26.30
2019-04-28T07:06:31.841Z,26.23
2019-04-28T07:07:33.340Z,26.20
2019-04-28T07:08:34.821Z,26.15
2019-04-28T07:09:36.326Z,26.12
2019-04-28T07:10:37.714Z,26.13
2019-04-28T07:11:39.280Z,26.06
2019-04-28T07:12:40.692Z,26.09
2019-04-28T07:13:42.095Z,26.02
2019-04-28T07:14:43.520Z,26.02
2019-04-28T07:15:44.947Z,25.95
2019-04-28T07:16:46.328Z,25.88
2019-04-28T07:17:47.729Z,25.84
2019-04-28T07:18:49.109Z,25.92
2019-04-28T07:19:58.317Z,25.92
2019-04-28T07:21:01.641Z,25.87
2019-04-28T07:22:07.479Z,25.93
2019-04-28T07:23:10.702Z,25.95
2019-04-28T07:24:12.226Z,25.93
2019-04-28T07:25:13.636Z,25.96
2019-04-28T07:26:15.029Z,25.91
2019-04-28T07:27:16.408Z,25.88
2019-04-28T07:28:19.749Z,25.85
2019-04-28T07:29:21.119Z,25.89
2019-04-28T07:30:23.212Z,25.84
2019-04-28T07:31:24.640Z,25.94
2019-04-28T07:32:26.044Z,26.02
2019-04-28T07:33:35.822Z,25.93
2019-04-28T07:34:30.780Z,25.92
2019-04-28T07:35:32.198Z,25.83
2019-04-28T07:36:33.591Z,25.82
2019-04-28T07:37:34.983Z,25.82
2019-04-28T07:38:37.683Z,26.08
2019-04-28T07:39:39.057Z,26.32
2019-04-28T07:40:40.545Z,26.77
2019-04-28T07:41:42.105Z,26.67
2019-04-28T07:42:43.507Z,26.52
2019-04-28T07:43:44.882Z,26.42
2019-04-28T07:44:46.249Z,26.21
2019-04-28T07:45:47.750Z,25.89
2019-04-28T07:46:49.292Z,25.48
2019-04-28T07:47:50.684Z,25.27
2019-04-28T07:48:52.507Z,25.24
2019-04-28T07:49:53.967Z,25.18
2019-04-28T07:50:55.352Z,25.16
2019-04-28T07:52:01.197Z,25.08
2019-04-28T07:53:04.473Z,25.10
2019-04-28T07:54:07.777Z,25.12
2019-04-28T07:55:09.148Z,25.15
2019-04-28T07:56:10.653Z,25.15
2019-04-28T07:57:12.160Z,25.19
2019-04-28T07:58:13.559Z,25.19
2019-04-28T07:59:15.196Z,25.16
2019-04-28T08:00:21.304Z,25.12
2019-04-28T08:01:22.697Z,25.15
2019-04-28T08:02:24.204Z,25.24
2019-04-28T08:03:25.588Z,25.26
2019-04-28T08:04:26.996Z,25.27
2019-04-28T08:05:28.381Z,25.24
2019-04-28T08:06:29.790Z,25.27
2019-04-28T08:07:31.214Z,25.29
2019-04-28T08:08:32.593Z,25.31
2019-04-28T08:09:33.997Z,25.34
2019-04-28T08:10:35.472Z,25.29
2019-04-28T08:11:36.865Z,25.33
2019-04-28T08:12:38.315Z,25.31
2019-04-28T08:13:39.697Z,25.29
2019-04-28T08:14:41.086Z,25.31
2019-04-28T08:15:42.476Z,25.36
2019-04-28T08:16:43.857Z,25.33
2019-04-28T08:17:45.265Z,25.26
2019-04-28T08:18:46.654Z,25.26
2019-04-28T08:19:48.052Z,25.30
2019-04-28T08:20:49.440Z,25.29
2019-04-28T08:21:50.835Z,25.34
2019-04-28T08:22:52.243Z,25.41
2019-04-28T08:23:53.619Z,25.37
2019-04-28T08:24:55.024Z,25.40
2019-04-28T08:25:56.396Z,25.35
2019-04-28T08:26:57.795Z,25.43
2019-04-28T08:27:59.515Z,25.43
2019-04-28T08:29:01.006Z,25.38
2019-04-28T08:30:03.190Z,25.37
2019-04-28T08:31:05.677Z,25.34
2019-04-28T08:32:24.238Z,25.35
2019-04-28T08:33:33.061Z,25.39
2019-04-28T08:34:33.608Z,25.37
2019-04-28T08:35:35.004Z,25.44
2019-04-28T08:36:36.485Z,25.52
2019-04-28T08:37:37.888Z,25.56
2019-04-28T08:38:39.485Z,25.50
2019-04-28T08:39:40.868Z,25.54
2019-04-28T08:40:42.253Z,25.60
2019-04-28T08:41:43.668Z,25.54
2019-04-28T08:42:45.153Z,25.58
2019-04-28T08:43:46.577Z,25.60
2019-04-28T08:44:47.957Z,25.59
2019-04-28T08:45:49.457Z,25.59
2019-04-28T08:46:50.939Z,25.61
2019-04-28T08:47:52.342Z,25.58
2019-04-28T08:48:53.763Z,25.55
2019-04-28T08:49:55.181Z,25.50
2019-04-28T08:50:56.599Z,25.59
2019-04-28T08:51:58.006Z,25.63
2019-04-28T08:52:59.408Z,25.57
2019-04-28T08:54:00.819Z,25.48
2019-04-28T08:55:04.300Z,25.56
2019-04-28T08:56:05.693Z,25.56
2019-04-28T08:57:07.081Z,25.60
2019-04-28T08:58:08.569Z,25.61
2019-04-28T08:59:09.994Z,25.62
2019-04-28T09:00:13.116Z,25.58
2019-04-28T09:01:14.811Z,25.62
2019-04-28T09:02:16.228Z,25.58
2019-04-28T09:03:17.644Z,25.60
2019-04-28T09:04:19.064Z,25.65
2019-04-28T09:05:20.540Z,25.60
2019-04-28T09:06:21.972Z,25.59
2019-04-28T09:07:23.356Z,25.65
2019-04-28T09:08:24.758Z,25.66
2019-04-28T09:09:26.272Z,25.63
2019-04-28T09:10:27.685Z,25.69
2019-04-28T09:11:29.101Z,25.64
2019-04-28T09:12:30.493Z,25.63
2019-04-28T09:13:31.956Z,25.68
2019-04-28T09:14:33.822Z,25.71
2019-04-28T09:15:35.204Z,25.63
2019-04-28T09:16:36.601Z,25.67
2019-04-28T09:17:38.996Z,25.65
2019-04-28T09:18:40.384Z,25.57
2019-04-28T09:19:42.547Z,25.59
2019-04-28T09:20:44.081Z,25.60
2019-04-28T09:21:45.486Z,25.59
2019-04-28T09:22:46.866Z,25.65
2019-04-28T09:23:48.264Z,25.56
2019-04-28T09:24:49.687Z,25.64
2019-04-28T09:25:51.067Z,25.60
2019-04-28T09:26:52.556Z,25.63
2019-04-28T09:27:53.941Z,25.59
2019-04-28T09:28:55.319Z,25.63
2019-04-28T09:29:57.741Z,25.61
2019-04-28T09:30:59.217Z,25.60
2019-04-28T09:32:00.613Z,25.59
2019-04-28T09:33:02.092Z,25.60
2019-04-28T09:34:03.490Z,25.65
2019-04-28T09:35:05.401Z,25.61
2019-04-28T09:36:06.784Z,25.78
2019-04-28T09:37:08.340Z,25.81
2019-04-28T09:38:09.732Z,26.05
2019-04-28T09:39:13.027Z,26.13
2019-04-28T09:40:16.133Z,26.23
2019-04-28T09:41:17.505Z,26.09
2019-04-28T09:42:29.775Z,26.12
2019-04-28T09:43:49.668Z,26.20
2019-04-28T09:44:51.260Z,25.95
2019-04-28T09:45:54.580Z,25.80
2019-04-28T09:46:56.101Z,25.85
2019-04-28T09:47:57.589Z,25.82
2019-04-28T09:48:59.090Z,25.75
2019-04-28T09:50:00.580Z,25.65
2019-04-28T09:51:01.986Z,25.71
2019-04-28T09:52:03.352Z,25.64
2019-04-28T09:53:04.752Z,25.60
2019-04-28T09:54:06.232Z,25.67
2019-04-28T09:55:07.933Z,25.66
2019-04-28T09:56:09.345Z,25.69
2019-04-28T09:57:10.741Z,25.63
2019-04-28T09:58:12.125Z,25.66
2019-04-28T09:59:13.612Z,25.72
2019-04-28T10:00:16.399Z,25.82
2019-04-28T10:01:17.822Z,25.72
2019-04-28T10:02:19.296Z,25.62
2019-04-28T10:03:20.797Z,25.72
2019-04-28T10:04:22.272Z,25.65
2019-04-28T10:05:23.668Z,25.62
2019-04-28T10:06:25.115Z,25.52
2019-04-28T10:07:26.503Z,25.54
2019-04-28T10:08:27.999Z,25.54
2019-04-28T10:09:29.391Z,25.52
2019-04-28T10:10:30.986Z,25.50
2019-04-28T10:11:32.384Z,25.52
2019-04-28T10:12:33.764Z,25.44
2019-04-28T10:13:35.160Z,25.46
2019-04-28T10:14:36.635Z,25.42
2019-04-28T10:15:38.096Z,25.49
2019-04-28T10:16:39.518Z,25.46
2019-04-28T10:17:41.020Z,25.43
2019-04-28T10:18:42.406Z,25.47
2019-04-28T10:19:43.801Z,25.48
2019-04-28T10:20:45.289Z,25.47
2019-04-28T10:21:46.728Z,25.40
2019-04-28T10:22:48.142Z,25.32
2019-04-28T10:23:49.574Z,25.29
2019-04-28T10:24:50.898Z,25.34
2019-04-28T10:25:52.493Z,25.34
2019-04-28T10:26:53.902Z,25.34
2019-04-28T10:27:55.288Z,25.25
2019-04-28T10:28:56.679Z,25.21
2019-04-28T10:29:58.169Z,25.20
2019-04-28T10:30:59.657Z,25.17
2019-04-28T10:32:01.061Z,25.23
2019-04-28T10:33:02.438Z,25.25
2019-04-28T10:34:04.543Z,25.22
2019-04-28T10:35:07.542Z,25.22
2019-04-28T10:36:08.954Z,25.14
2019-04-28T10:37:10.448Z,25.15
2019-04-28T10:38:11.837Z,25.15
2019-04-28T10:39:20.999Z,25.15
2019-04-28T10:40:31.444Z,25.18
2019-04-28T10:41:34.738Z,25.17
2019-04-28T10:42:36.231Z,25.17
2019-04-28T10:43:37.753Z,25.13
2019-04-28T10:44:41.055Z,25.15
2019-04-28T10:45:44.425Z,25.17
2019-04-28T10:46:46.401Z,25.18
2019-04-28T10:47:47.876Z,25.18
2019-04-28T10:48:49.249Z,25.17
2019-04-28T10:49:50.749Z,25.17
2019-04-28T10:50:52.231Z,25.18
2019-04-28T10:51:59.465Z,25.16
2019-04-28T10:52:57.161Z,25.19
2019-04-28T10:53:58.648Z,25.17
2019-04-28T10:55:00.340Z,25.21
2019-04-28T10:56:01.724Z,25.18
2019-04-28T10:57:03.323Z,25.18
2019-04-28T10:58:04.743Z,25.24
2019-04-28T10:59:06.133Z,25.25
2019-04-28T11:00:08.124Z,25.23
2019-04-28T11:01:09.496Z,25.21
2019-04-28T11:02:10.896Z,25.25
2019-04-28T11:03:12.282Z,25.20
2019-04-28T11:04:32.427Z,25.21
2019-04-28T11:05:41.772Z,25.20
2019-04-28T11:06:43.271Z,25.25
2019-04-28T11:07:44.679Z,25.26
2019-04-28T11:08:53.893Z,25.29
2019-04-28T11:10:06.228Z,25.32
2019-04-28T11:11:09.568Z,25.33
2019-04-28T11:12:15.628Z,25.36
2019-04-28T11:13:17.129Z,25.35
2019-04-28T11:14:18.516Z,25.46
2019-04-28T11:15:21.805Z,25.49
2019-04-28T11:16:25.173Z,25.57
2019-04-28T11:17:26.546Z,25.52
2019-04-28T11:18:28.247Z,25.56
2019-04-28T11:19:29.659Z,25.67
2019-04-28T11:20:31.659Z,25.57
2019-04-28T11:21:33.051Z,25.49
2019-04-28T11:22:34.440Z,25.51
2019-04-28T11:23:35.927Z,25.44
2019-04-28T11:24:37.359Z,25.33
2019-04-28T11:25:38.759Z,25.29
2019-04-28T11:26:40.161Z,25.34
2019-04-28T11:27:41.532Z,25.31
2019-04-28T11:28:43.004Z,25.33
2019-04-28T11:29:44.516Z,25.33
2019-04-28T11:30:46.123Z,25.29
2019-04-28T11:31:47.614Z,25.23
2019-04-28T11:32:59.961Z,25.23
2019-04-28T11:34:21.221Z,25.22
2019-04-28T11:35:24.705Z,25.26
2019-04-28T11:36:26.087Z,25.23
2019-04-28T11:37:27.489Z,25.24
2019-04-28T11:38:28.861Z,25.20
2019-04-28T11:39:32.164Z,25.22
2019-04-28T11:40:33.904Z,25.21
2019-04-28T11:41:35.289Z,25.17
2019-04-28T11:42:36.704Z,25.15
2019-04-28T11:43:38.067Z,25.15
2019-04-28T11:44:39.448Z,25.14
2019-04-28T11:45:40.946Z,25.12
2019-04-28T11:46:42.425Z,25.04
2019-04-28T11:47:43.832Z,25.01
2019-04-28T11:48:45.243Z,25.04
2019-04-28T11:49:46.662Z,25.03
2019-04-28T11:50:48.200Z,24.96
2019-04-28T11:51:49.562Z,25.05
2019-04-28T11:52:50.956Z,25.00
2019-04-28T11:53:52.342Z,24.98
2019-04-28T11:54:53.844Z,25.01
2019-04-28T11:55:55.237Z,24.97
2019-04-28T11:56:56.750Z,24.93
2019-04-28T11:57:58.161Z,24.90
2019-04-28T11:58:59.574Z,24.92
2019-04-28T12:00:02.787Z,24.83
2019-04-28T12:01:04.521Z,24.87
2019-04-28T12:02:07.117Z,24.83
2019-04-28T12:03:08.608Z,24.79
2019-04-28T12:04:11.886Z,24.82
2019-04-28T12:05:13.387Z,24.80
2019-04-28T12:06:14.993Z,24.80
2019-04-28T12:07:16.559Z,24.80
2019-04-28T12:08:18.327Z,24.81
2019-04-28T12:09:24.431Z,24.81
2019-04-28T12:10:46.039Z,24.73
2019-04-28T12:11:49.460Z,24.82
2019-04-28T12:13:09.745Z,24.75
2019-04-28T12:14:13.048Z,24.68
2019-04-28T12:15:16.324Z,24.63
2019-04-28T12:16:28.252Z,24.71
2019-04-28T12:17:31.604Z,24.74
2019-04-28T12:18:37.721Z,24.76
2019-04-28T12:19:46.853Z,24.75
2019-04-28T12:20:48.361Z,24.70
2019-04-28T12:21:49.879Z,24.65
2019-04-28T12:22:51.253Z,24.68
2019-04-28T12:23:52.655Z,24.74
2019-04-28T12:24:54.036Z,24.67
2019-04-28T12:25:55.444Z,24.66
2019-04-28T12:26:57.935Z,24.62
2019-04-28T12:27:59.424Z,24.63
2019-04-28T12:29:00.997Z,24.59
2019-04-28T12:30:03.934Z,24.58
2019-04-28T12:31:06.455Z,24.50
2019-04-28T12:32:07.857Z,24.54
2019-04-28T12:33:09.238Z,24.55
2019-04-28T12:34:10.638Z,24.57
2019-04-28T12:35:12.226Z,24.57
2019-04-28T12:36:13.664Z,24.58
2019-04-28T12:37:15.091Z,24.56
2019-04-28T12:38:16.482Z,24.53
2019-04-28T12:39:19.968Z,24.47
2019-04-28T12:40:22.696Z,24.51
2019-04-28T12:41:24.283Z,24.47
2019-04-28T12:42:25.807Z,24.41
2019-04-28T12:43:27.212Z,24.41
2019-04-28T12:44:29.646Z,24.43
2019-04-28T12:45:35.185Z,24.46
2019-04-28T12:46:34.608Z,24.45
2019-04-28T12:47:36.247Z,24.45
2019-04-28T12:48:37.750Z,24.49
2019-04-28T12:49:43.594Z,24.48
2019-04-28T12:50:49.423Z,24.47
2019-04-28T12:51:50.837Z,24.44
2019-04-28T12:52:52.332Z,24.50
2019-04-28T12:53:55.722Z,24.50
2019-04-28T12:54:57.115Z,24.57
2019-04-28T12:55:58.506Z,24.50
2019-04-28T12:56:59.897Z,24.55
2019-04-28T12:58:02.919Z,24.56
2019-04-28T12:59:11.908Z,24.57
2019-04-28T13:00:21.310Z,24.54
2019-04-28T13:01:27.385Z,24.54
2019-04-28T13:02:33.453Z,24.50
2019-04-28T13:03:36.785Z,24.49
2019-04-28T13:04:48.817Z,24.49
2019-04-28T13:06:02.299Z,24.45
2019-04-28T13:07:02.394Z,24.41
2019-04-28T13:08:04.029Z,24.45
2019-04-28T13:09:06.142Z,24.49
2019-04-28T13:10:09.675Z,24.50
2019-04-28T13:11:11.087Z,24.55
2019-04-28T13:12:12.509Z,24.55
2019-04-28T13:13:14.115Z,24.56
2019-04-28T13:14:15.539Z,24.58
2019-04-28T13:15:17.021Z,24.57
2019-04-28T13:16:19.611Z,24.58
2019-04-28T13:17:20.980Z,24.44
2019-04-28T13:18:22.382Z,24.43
2019-04-28T13:19:23.792Z,24.49
2019-04-28T13:20:25.207Z,24.51
2019-04-28T13:21:26.718Z,24.50
2019-04-28T13:22:28.237Z,24.54
2019-04-28T13:23:29.647Z,24.54
2019-04-28T13:24:31.080Z,24.54
2019-04-28T13:25:32.496Z,24.50
2019-04-28T13:26:33.857Z,24.48
2019-04-28T13:27:35.354Z,24.50
2019-04-28T13:28:36.856Z,24.47
2019-04-28T13:29:38.379Z,24.44